Back to Top

Language: 

My Weather Underground Personal Weather Station Historical Data with Graphs...

Delerius Weather Station Historical Data
Daily Summary for August 21, 2017 Units:  English    Metric   Both
« Previous Day
Next Day »
Daily Weekly Monthly Yearly Custom
  High: Low: Average:
Temperature: 64.6 °F 47.7 °F 58.4 °F
Dew Point: 59.8 °F 46.0 °F 54.5 °F
Humidity: 96 % 74 % 87 %
Wind Speed: 7.0 mph 0.0 mph 2.2 mph
Wind Gust: 13.0 mph - -
Wind:- - South
Pressure: 30.17 in 30.10 in -
Precipitation: 0.01 in    
Historical Graphs
 
 
Tabular Data for August 21, 2017
Time Temperature Dew Point Pressure Wind Wind Speed Wind Gust Humidity Rainfall Rate (Hourly) solar Conditions
00:01 54.7 °F 51.5 °F 30.16 in Calm     89 % 0.00 in 0 W/m2
00:06 54.5 °F 51.0 °F 30.16 in Calm     88 % 0.00 in 0 W/m2
00:11 54.3 °F 51.1 °F 30.16 in Calm     89 % 0.00 in 0 W/m2
00:16 54.1 °F 51.0 °F 30.16 in Calm     89 % 0.00 in 0 W/m2
00:21 54.0 °F 50.8 °F 30.16 in Calm     89 % 0.00 in 0 W/m2
00:26 54.0 °F 50.8 °F 30.17 in Calm     89 % 0.00 in 0 W/m2
00:29 53.8 °F 50.6 °F 30.17 in Calm     89 % 0.00 in 0 W/m2
00:34 53.8 °F 50.6 °F 30.17 in Calm     89 % 0.00 in 0 W/m2
00:39 53.6 °F 50.4 °F 30.17 in Calm     89 % 0.00 in 0 W/m2
00:44 53.4 °F 50.6 °F 30.17 in Calm     90 % 0.00 in 0 W/m2
00:49 53.2 °F 50.4 °F 30.17 in Calm     90 % 0.00 in 0 W/m2
00:54 53.1 °F 50.2 °F 30.17 in Calm     90 % 0.00 in 0 W/m2
00:59 53.1 °F 50.2 °F 30.17 in Calm     90 % 0.00 in 0 W/m2
01:04 52.9 °F 50.0 °F 30.17 in Calm     90 % 0.00 in 0 W/m2
01:09 52.5 °F 49.7 °F 30.17 in Calm     90 % 0.00 in 0 W/m2
01:14 52.3 °F 49.5 °F 30.17 in Calm     90 % 0.00 in 0 W/m2
01:19 52.3 °F 49.5 °F 30.17 in Calm     90 % 0.00 in 0 W/m2
01:24 52.2 °F 49.6 °F 30.17 in Calm     91 % 0.00 in 0 W/m2
01:29 52.0 °F 49.4 °F 30.17 in Calm     91 % 0.00 in 0 W/m2
01:34 52.0 °F 49.4 °F 30.17 in Calm     91 % 0.00 in 0 W/m2
01:39 51.6 °F 49.1 °F 30.17 in Calm     91 % 0.00 in 0 W/m2
01:41 51.6 °F 49.1 °F 30.17 in Calm     91 % 0.00 in 0 W/m2
01:46 51.4 °F 48.9 °F 30.17 in Calm     91 % 0.00 in 0 W/m2
01:51 51.3 °F 48.7 °F 30.17 in Calm     91 % 0.00 in 0 W/m2
01:56 51.3 °F 48.7 °F 30.17 in Calm     91 % 0.00 in 0 W/m2
02:01 51.1 °F 48.8 °F 30.17 in Calm     92 % 0.00 in 0 W/m2
02:06 51.1 °F 48.8 °F 30.17 in Calm     92 % 0.00 in 0 W/m2
02:07 51.1 °F 48.8 °F 30.17 in Calm     92 % 0.00 in 0 W/m2
02:12 50.9 °F 48.7 °F 30.17 in Calm     92 % 0.00 in 0 W/m2
02:17 50.7 °F 48.5 °F 30.17 in Calm     92 % 0.00 in 0 W/m2
02:22 50.5 °F 48.3 °F 30.17 in Calm     92 % 0.00 in 0 W/m2
02:27 50.4 °F 48.1 °F 30.17 in Calm     92 % 0.00 in 0 W/m2
02:32 50.2 °F 47.9 °F 30.17 in Calm     92 % 0.00 in 0 W/m2
02:37 50.2 °F 48.2 °F 30.17 in Calm     93 % 0.00 in 0 W/m2
02:42 50.0 °F 47.8 °F 30.17 in Calm     92 % 0.00 in 0 W/m2
02:47 49.8 °F 47.9 °F 30.16 in Calm     93 % 0.00 in 0 W/m2
02:52 49.8 °F 47.6 °F 30.16 in Calm     92 % 0.00 in 0 W/m2
02:57 49.6 °F 47.7 °F 30.16 in Calm     93 % 0.00 in 0 W/m2
03:02 49.5 °F 47.5 °F 30.16 in Calm     93 % 0.00 in 0 W/m2
03:07 49.5 °F 47.5 °F 30.16 in Calm     93 % 0.00 in 0 W/m2
03:12 49.3 °F 47.3 °F 30.16 in Calm     93 % 0.00 in 0 W/m2
03:17 49.3 °F 47.3 °F 30.16 in Calm     93 % 0.00 in 0 W/m2
03:22 49.5 °F 47.8 °F 30.16 in Calm     94 % 0.00 in 0 W/m2
03:27 49.6 °F 47.7 °F 30.15 in Calm     93 % 0.00 in 0 W/m2
03:32 49.5 °F 47.5 °F 30.15 in Calm     93 % 0.00 in 0 W/m2
03:37 49.1 °F 47.2 °F 30.15 in Calm   1.0 mph 93 % 0.00 in 0 W/m2
03:42 48.9 °F 47.0 °F 30.15 in Calm   1.0 mph 93 % 0.00 in 0 W/m2
03:47 48.7 °F 46.8 °F 30.15 in Calm     93 % 0.00 in 0 W/m2
03:52 48.7 °F 46.8 °F 30.15 in Calm     93 % 0.00 in 0 W/m2
03:57 48.6 °F 46.6 °F 30.15 in Calm     93 % 0.00 in 0 W/m2
04:02 48.6 °F 46.9 °F 30.15 in Calm     94 % 0.00 in 0 W/m2
04:07 48.4 °F 46.7 °F 30.15 in Calm   2.0 mph 94 % 0.00 in 0 W/m2
04:12 48.6 °F 46.9 °F 30.15 in Calm   2.0 mph 94 % 0.00 in 0 W/m2
04:17 48.6 °F 46.9 °F 30.14 in Calm     94 % 0.00 in 0 W/m2
04:22 48.6 °F 46.9 °F 30.14 in Calm     94 % 0.00 in 0 W/m2
04:27 48.6 °F 46.9 °F 30.14 in Calm     94 % 0.00 in 0 W/m2
04:32 48.4 °F 46.7 °F 30.15 in Calm     94 % 0.00 in 0 W/m2
04:37 48.0 °F 46.1 °F 30.14 in Calm     93 % 0.00 in 0 W/m2
04:42 48.0 °F 46.4 °F 30.14 in Calm     94 % 0.00 in 0 W/m2
04:47 48.0 °F 46.4 °F 30.14 in Calm     94 % 0.00 in 0 W/m2
04:49 48.0 °F 46.4 °F 30.15 in Calm     94 % 0.00 in 0 W/m2
04:54 47.8 °F 46.2 °F 30.15 in Calm   2.0 mph 94 % 0.00 in 0 W/m2
05:00 47.8 °F 46.2 °F 30.15 in Calm   2.0 mph 94 % 0.00 in 0 W/m2
05:05 47.8 °F 46.2 °F 30.15 in Calm     94 % 0.00 in 0 W/m2
05:10 47.7 °F 46.0 °F 30.15 in Calm     94 % 0.00 in 0 W/m2
05:15 47.7 °F 46.0 °F 30.15 in Calm     94 % 0.00 in 0 W/m2
05:20 47.8 °F 46.5 °F 30.15 in Calm     95 % 0.00 in 0 W/m2
05:25 48.0 °F 46.7 °F 30.15 in Calm     95 % 0.00 in 0 W/m2
05:30 48.0 °F 46.7 °F 30.15 in Calm     95 % 0.00 in 0 W/m2
05:35 48.2 °F 46.8 °F 30.15 in Calm     95 % 0.00 in 0 W/m2
05:40 48.2 °F 46.8 °F 30.15 in Calm     95 % 0.00 in 0 W/m2
05:45 48.2 °F 46.8 °F 30.15 in Calm     95 % 0.00 in 0 W/m2
05:50 48.4 °F 47.0 °F 30.15 in Calm     95 % 0.00 in 0 W/m2
05:55 48.2 °F 46.8 °F 30.15 in Calm     95 % 0.00 in 0 W/m2
06:00 48.0 °F 46.7 °F 30.15 in Calm     95 % 0.00 in 0 W/m2
06:05 48.0 °F 46.7 °F 30.15 in Calm   1.0 mph 95 % 0.00 in 5 W/m2
06:10 48.0 °F 46.7 °F 30.16 in Calm   1.0 mph 95 % 0.00 in 7 W/m2
06:15 47.8 °F 46.5 °F 30.16 in Calm     95 % 0.00 in 11 W/m2
06:20 47.8 °F 46.5 °F 30.16 in Calm     95 % 0.00 in 12 W/m2
06:25 47.8 °F 46.5 °F 30.16 in Calm     95 % 0.00 in 14 W/m2
06:30 47.8 °F 46.5 °F 30.16 in Calm     95 % 0.00 in 18 W/m2
06:35 47.8 °F 46.5 °F 30.16 in Calm     95 % 0.00 in 21 W/m2
06:40 47.7 °F 46.3 °F 30.16 in Calm     95 % 0.00 in 23 W/m2
06:45 47.7 °F 46.3 °F 30.16 in Calm   1.0 mph 95 % 0.00 in 26 W/m2
06:50 47.8 °F 46.5 °F 30.16 in Calm   1.0 mph 95 % 0.00 in 30 W/m2
06:55 48.2 °F 47.1 °F 30.15 in Calm     96 % 0.00 in 37 W/m2
07:00 48.6 °F 47.5 °F 30.15 in Calm     96 % 0.00 in 46 W/m2
07:05 48.6 °F 47.5 °F 30.16 in Calm     96 % 0.00 in 63 W/m2
07:10 48.9 °F 47.8 °F 30.16 in Calm     96 % 0.00 in 69 W/m2
07:15 49.3 °F 48.2 °F 30.16 in Calm     96 % 0.00 in 70 W/m2
07:20 49.5 °F 48.4 °F 30.16 in Calm     96 % 0.00 in 120 W/m2
07:25 49.6 °F 48.5 °F 30.16 in Calm     96 % 0.00 in 135 W/m2
07:30 50.0 °F 48.9 °F 30.17 in Calm     96 % 0.00 in 69 W/m2
07:35 50.2 °F 48.8 °F 30.16 in Calm     95 % 0.00 in 65 W/m2
07:40 50.4 °F 49.3 °F 30.17 in Calm     96 % 0.00 in 65 W/m2
07:45 50.7 °F 49.6 °F 30.17 in Calm     96 % 0.00 in 65 W/m2
07:50 51.1 °F 50.0 °F 30.17 in Calm     96 % 0.00 in 88 W/m2
07:55 51.3 °F 49.9 °F 30.17 in Calm     95 % 0.00 in 93 W/m2
08:00 51.6 °F 50.2 °F 30.17 in Calm     95 % 0.00 in 225 W/m2
08:05 52.0 °F 50.6 °F 30.17 in Calm     95 % 0.00 in 225 W/m2
08:10 52.3 °F 51.0 °F 30.17 in Calm     95 % 0.00 in 232 W/m2
08:15 53.1 °F 51.7 °F 30.17 in Calm     95 % 0.00 in 243 W/m2
08:20 53.6 °F 52.2 °F 30.17 in Calm   1.0 mph 95 % 0.00 in 264 W/m2
08:25 54.1 °F 52.7 °F 30.17 in Calm   1.0 mph 95 % 0.00 in 283 W/m2
08:30 55.2 °F 53.5 °F 30.16 in Calm   2.0 mph 94 % 0.00 in 294 W/m2
08:35 56.1 °F 54.1 °F 30.16 in East 1.0 mph 3.0 mph 93 % 0.00 in 260 W/m2
08:40 56.8 °F 54.5 °F 30.16 in East 1.0 mph 4.0 mph 92 % 0.00 in 322 W/m2
08:45 57.4 °F 54.8 °F 30.16 in ESE 2.0 mph 7.0 mph 91 % 0.00 in 334 W/m2
08:50 57.9 °F 55.0 °F 30.16 in ESE 4.0 mph 7.0 mph 90 % 0.00 in 381 W/m2
08:55 58.5 °F 54.9 °F 30.16 in ESE 3.0 mph 7.0 mph 88 % 0.00 in 299 W/m2
09:00 58.6 °F 55.1 °F 30.16 in ESE 2.0 mph 7.0 mph 88 % 0.00 in 318 W/m2
09:05 59.0 °F 55.1 °F 30.16 in East 2.0 mph 7.0 mph 87 % 0.00 in 236 W/m2
09:10 59.2 °F 55.3 °F 30.16 in ESE 2.0 mph 6.0 mph 87 % 0.00 in 269 W/m2
09:15 59.4 °F 55.5 °F 30.16 in SE 1.0 mph 6.0 mph 87 % 0.00 in 448 W/m2
09:20 59.9 °F 56.0 °F 30.16 in SE 1.0 mph 5.0 mph 87 % 0.00 in 454 W/m2
09:30 59.7 °F 55.2 °F 30.16 in SSE 3.0 mph 7.0 mph 85 % 0.00 in 241 W/m2
09:35 60.1 °F 55.9 °F 30.16 in SSE 2.0 mph 7.0 mph 86 % 0.00 in 362 W/m2
09:37 60.4 °F 55.9 °F 30.16 in SSE 2.0 mph 7.0 mph 85 % 0.00 in 362 W/m2
09:42 61.0 °F 56.4 °F 30.16 in SE 4.0 mph 7.0 mph 85 % 0.00 in 650 W/m2
09:47 61.5 °F 56.3 °F 30.15 in ESE 4.0 mph 7.0 mph 83 % 0.00 in 636 W/m2
09:52 61.9 °F 56.3 °F 30.15 in ESE 4.0 mph 7.0 mph 82 % 0.00 in 408 W/m2
09:57 62.1 °F 56.2 °F 30.15 in SE 5.0 mph 8.0 mph 81 % 0.00 in 322 W/m2
10:02 62.1 °F 56.2 °F 30.16 in SE 4.0 mph 8.0 mph 81 % 0.00 in 260 W/m2
10:07 62.1 °F 55.8 °F 30.16 in SSE 4.0 mph 8.0 mph 80 % 0.00 in 290 W/m2
10:12 62.1 °F 56.2 °F 30.16 in South 5.0 mph 9.0 mph 81 % 0.00 in 250 W/m2
10:17 62.2 °F 56.3 °F 30.16 in South 5.0 mph 9.0 mph 81 % 0.00 in 608 W/m2
10:22 62.8 °F 56.5 °F 30.17 in South 4.0 mph 9.0 mph 80 % 0.00 in 633 W/m2
10:27 62.8 °F 56.2 °F 30.17 in South 5.0 mph 8.0 mph 79 % 0.00 in 686 W/m2
10:32 63.3 °F 56.3 °F 30.16 in SSE 5.0 mph 10.0 mph 78 % 0.00 in 649 W/m2
10:37 64.0 °F 56.7 °F 30.17 in SE 6.0 mph 11.0 mph 77 % 0.00 in 598 W/m2
10:42 64.2 °F 56.1 °F 30.17 in SSE 5.0 mph 11.0 mph 75 % 0.00 in 457 W/m2
10:47 64.2 °F 56.1 °F 30.16 in South 6.0 mph 9.0 mph 75 % 0.00 in 568 W/m2
10:52 64.2 °F 55.8 °F 30.16 in SSE 6.0 mph 10.0 mph 74 % 0.00 in 297 W/m2
10:57 64.2 °F 56.1 °F 30.16 in SSE 6.0 mph 10.0 mph 75 % 0.00 in 316 W/m2
11:02 64.0 °F 56.3 °F 30.16 in South 5.0 mph 9.0 mph 76 % 0.00 in 294 W/m2
11:07 63.9 °F 55.8 °F 30.16 in SSW 6.0 mph 12.0 mph 75 % 0.00 in 285 W/m2
11:13 63.9 °F 56.1 °F 30.16 in South 6.0 mph 12.0 mph 76 % 0.00 in 339 W/m2
11:18 64.0 °F 56.3 °F 30.16 in SSE 5.0 mph 9.0 mph 76 % 0.00 in 304 W/m2
11:23 64.0 °F 56.0 °F 30.16 in SSE 6.0 mph 11.0 mph 75 % 0.00 in 239 W/m2
11:28 63.9 °F 56.1 °F 30.16 in South 7.0 mph 11.0 mph 76 % 0.00 in 301 W/m2
11:33 63.9 °F 56.5 °F 30.16 in South 6.0 mph 12.0 mph 77 % 0.00 in 338 W/m2
11:38 63.9 °F 56.5 °F 30.15 in SSW 6.0 mph 12.0 mph 77 % 0.00 in 325 W/m2
11:43 64.0 °F 56.7 °F 30.15 in SSW 5.0 mph 12.0 mph 77 % 0.00 in 220 W/m2
11:48 63.9 °F 56.5 °F 30.15 in SSW 4.0 mph 7.0 mph 77 % 0.00 in 160 W/m2
11:53 63.7 °F 56.3 °F 30.15 in SSW 6.0 mph 12.0 mph 77 % 0.00 in 229 W/m2
11:58 63.7 °F 56.3 °F 30.15 in South 7.0 mph 12.0 mph 77 % 0.00 in 183 W/m2
12:03 63.7 °F 56.7 °F 30.15 in South 6.0 mph 10.0 mph 78 % 0.00 in 183 W/m2
12:08 63.7 °F 56.7 °F 30.15 in South 6.0 mph 11.0 mph 78 % 0.00 in 139 W/m2
12:13 63.7 °F 57.0 °F 30.15 in SSW 6.0 mph 11.0 mph 79 % 0.00 in 141 W/m2
12:18 63.5 °F 56.9 °F 30.15 in South 7.0 mph 11.0 mph 79 % 0.00 in 132 W/m2
12:23 63.3 °F 56.7 °F 30.15 in SSE 7.0 mph 10.0 mph 79 % 0.00 in 111 W/m2
12:28 63.3 °F 57.0 °F 30.15 in SSE 5.0 mph 11.0 mph 80 % 0.00 in 111 W/m2
12:33 63.3 °F 56.7 °F 30.15 in South 5.0 mph 13.0 mph 79 % 0.00 in 100 W/m2
12:38 63.1 °F 56.9 °F 30.15 in South 5.0 mph 13.0 mph 80 % 0.00 in 237 W/m2
12:43 63.3 °F 57.0 °F 30.14 in SSE 4.0 mph 7.0 mph 80 % 0.00 in 246 W/m2
12:48 63.7 °F 57.4 °F 30.14 in South 5.0 mph 10.0 mph 80 % 0.00 in 171 W/m2
12:53 63.7 °F 57.0 °F 30.14 in South 6.0 mph 12.0 mph 79 % 0.00 in 258 W/m2
12:58 63.7 °F 57.0 °F 30.15 in SSE 6.0 mph 12.0 mph 79 % 0.00 in 234 W/m2
13:03 63.7 °F 57.0 °F 30.14 in South 6.0 mph 9.0 mph 79 % 0.00 in 156 W/m2
13:08 63.9 °F 57.2 °F 30.14 in SSW 5.0 mph 9.0 mph 79 % 0.00 in 171 W/m2
13:13 63.9 °F 56.9 °F 30.14 in South 5.0 mph 12.0 mph 78 % 0.00 in 123 W/m2
13:18 63.7 °F 57.4 °F 30.14 in South 7.0 mph 12.0 mph 80 % 0.00 in 149 W/m2
13:23 63.7 °F 57.4 °F 30.14 in SSE 6.0 mph 11.0 mph 80 % 0.00 in 216 W/m2
13:28 63.9 °F 57.6 °F 30.14 in SE 4.0 mph 8.0 mph 80 % 0.00 in 167 W/m2
13:33 63.9 °F 57.6 °F 30.13 in SSE 4.0 mph 8.0 mph 80 % 0.00 in 169 W/m2
13:38 63.9 °F 57.6 °F 30.13 in SSE 5.0 mph 11.0 mph 80 % 0.00 in 202 W/m2
13:43 63.9 °F 57.6 °F 30.13 in SSE 6.0 mph 11.0 mph 80 % 0.00 in 211 W/m2
13:44 63.9 °F 57.6 °F 30.13 in SSE 6.0 mph 11.0 mph 80 % 0.00 in 241 W/m2
13:49 63.9 °F 57.6 °F 30.13 in SSE 7.0 mph 11.0 mph 80 % 0.00 in 292 W/m2
13:54 64.0 °F 57.7 °F 30.13 in SSE 6.0 mph 11.0 mph 80 % 0.00 in 241 W/m2
13:59 64.0 °F 57.7 °F 30.13 in SE 6.0 mph 11.0 mph 80 % 0.00 in 236 W/m2
14:04 64.0 °F 57.7 °F 30.13 in SSE 7.0 mph 11.0 mph 80 % 0.00 in 213 W/m2
14:09 64.0 °F 58.1 °F 30.13 in SE 7.0 mph 11.0 mph 81 % 0.00 in 211 W/m2
14:14 64.0 °F 57.7 °F 30.13 in SSE 7.0 mph 13.0 mph 80 % 0.00 in 132 W/m2
14:19 64.0 °F 57.7 °F 30.13 in SSE 7.0 mph 13.0 mph 80 % 0.00 in 137 W/m2
14:24 63.9 °F 57.9 °F 30.13 in SSE 6.0 mph 13.0 mph 81 % 0.00 in 104 W/m2
14:29 63.9 °F 57.9 °F 30.13 in SSE 6.0 mph 11.0 mph 81 % 0.00 in 104 W/m2
14:34 63.7 °F 57.7 °F 30.14 in SSE 6.0 mph 11.0 mph 81 % 0.00 in 98 W/m2
14:39 63.7 °F 57.7 °F 30.14 in SSE 5.0 mph 10.0 mph 81 % 0.00 in 100 W/m2
14:44 63.7 °F 58.1 °F 30.13 in SSE 5.0 mph 9.0 mph 82 % 0.00 in 102 W/m2
14:49 63.7 °F 58.1 °F 30.12 in SE 6.0 mph 12.0 mph 82 % 0.00 in 188 W/m2
14:54 63.7 °F 58.1 °F 30.12 in SSE 7.0 mph 12.0 mph 82 % 0.00 in 197 W/m2
14:59 63.9 °F 58.3 °F 30.12 in SSE 5.0 mph 10.0 mph 82 % 0.00 in 155 W/m2
15:04 63.9 °F 58.3 °F 30.12 in South 6.0 mph 13.0 mph 82 % 0.00 in 116 W/m2
15:09 63.9 °F 57.9 °F 30.12 in South 7.0 mph 13.0 mph 81 % 0.00 in 165 W/m2
15:14 64.0 °F 58.1 °F 30.13 in South 6.0 mph 10.0 mph 81 % 0.00 in 153 W/m2
15:19 64.0 °F 58.1 °F 30.13 in South 6.0 mph 11.0 mph 81 % 0.00 in 132 W/m2
15:24 64.0 °F 58.1 °F 30.13 in SSW 6.0 mph 11.0 mph 81 % 0.00 in 107 W/m2
15:29 64.0 °F 58.1 °F 30.12 in South 6.0 mph 10.0 mph 81 % 0.00 in 105 W/m2
15:34 64.0 °F 58.1 °F 30.12 in SSE 5.0 mph 9.0 mph 81 % 0.00 in 153 W/m2
15:35 64.2 °F 58.3 °F 30.12 in SSE 5.0 mph 8.0 mph 81 % 0.00 in 156 W/m2
15:40 64.2 °F 58.3 °F 30.12 in SSE 5.0 mph 11.0 mph 81 % 0.00 in 153 W/m2
15:45 64.2 °F 57.9 °F 30.12 in SSE 6.0 mph 11.0 mph 80 % 0.00 in 109 W/m2
15:46 64.2 °F 58.3 °F 30.12 in SSE 6.0 mph 11.0 mph 81 % 0.00 in 102 W/m2
15:51 64.4 °F 58.4 °F 30.12 in South 4.0 mph 10.0 mph 81 % 0.00 in 111 W/m2
15:56 64.4 °F 58.1 °F 30.12 in SSE 4.0 mph 10.0 mph 80 % 0.00 in 162 W/m2
16:01 64.6 °F 58.3 °F 30.12 in South 6.0 mph 10.0 mph 80 % 0.00 in 163 W/m2
16:06 64.6 °F 57.9 °F 30.12 in South 7.0 mph 12.0 mph 79 % 0.00 in 185 W/m2
16:11 64.6 °F 57.9 °F 30.12 in South 7.0 mph 12.0 mph 79 % 0.00 in 139 W/m2
16:16 64.6 °F 57.9 °F 30.12 in South 7.0 mph 11.0 mph 79 % 0.00 in 104 W/m2
16:21 64.6 °F 57.9 °F 30.12 in SSE 6.0 mph 11.0 mph 79 % 0.00 in 65 W/m2
16:26 64.6 °F 57.9 °F 30.12 in South 6.0 mph 9.0 mph 79 % 0.00 in 60 W/m2
16:31 64.6 °F 58.3 °F 30.12 in South 5.0 mph 9.0 mph 80 % 0.00 in 60 W/m2
16:36 64.4 °F 58.1 °F 30.11 in SSE 6.0 mph 10.0 mph 80 % 0.00 in 56 W/m2
16:41 64.2 °F 57.9 °F 30.11 in SE 7.0 mph 11.0 mph 80 % 0.00 in 91 W/m2
16:46 64.2 °F 58.3 °F 30.10 in SE 7.0 mph 11.0 mph 81 % 0.00 in 118 W/m2
16:51 64.2 °F 58.6 °F 30.12 in SE 5.0 mph 9.0 mph 82 % 0.00 in 74 W/m2
16:56 64.2 °F 58.9 °F 30.12 in SSE 3.0 mph 8.0 mph 83 % 0.00 in 51 W/m2
17:01 64.2 °F 58.9 °F 30.12 in SSW 3.0 mph 7.0 mph 83 % 0.00 in 54 W/m2
17:06 64.0 °F 58.8 °F 30.12 in SSW 5.0 mph 9.0 mph 83 % 0.00 in 77 W/m2
17:11 64.0 °F 59.1 °F 30.12 in SSW 3.0 mph 9.0 mph 84 % 0.00 in 95 W/m2
17:16 64.0 °F 59.4 °F 30.12 in South 1.0 mph 5.0 mph 85 % 0.00 in 95 W/m2
17:21 64.0 °F 59.1 °F 30.12 in South 2.0 mph 5.0 mph 84 % 0.00 in 81 W/m2
17:27 64.0 °F 59.1 °F 30.12 in South 2.0 mph 5.0 mph 84 % 0.00 in 72 W/m2
17:32 64.0 °F 59.4 °F 30.12 in South 2.0 mph 5.0 mph 85 % 0.00 in 56 W/m2
17:37 64.0 °F 59.1 °F 30.12 in SSW 3.0 mph 7.0 mph 84 % 0.00 in 54 W/m2
17:42 64.0 °F 59.1 °F 30.12 in SSW 4.0 mph 8.0 mph 84 % 0.00 in 74 W/m2
17:47 64.0 °F 59.4 °F 30.11 in SW 3.0 mph 8.0 mph 85 % 0.00 in 76 W/m2
17:52 63.9 °F 58.9 °F 30.11 in SSW 3.0 mph 7.0 mph 84 % 0.00 in 70 W/m2
17:55 64.0 °F 59.1 °F 30.12 in South 3.0 mph 7.0 mph 84 % 0.00 in 69 W/m2
18:00 63.9 °F 58.9 °F 30.11 in South 3.0 mph 9.0 mph 84 % 0.00 in 69 W/m2
18:05 64.0 °F 59.1 °F 30.12 in South 3.0 mph 9.0 mph 84 % 0.00 in 72 W/m2
18:11 64.0 °F 59.1 °F 30.11 in SSW 3.0 mph 7.0 mph 84 % 0.00 in 65 W/m2
18:16 64.0 °F 59.1 °F 30.11 in SW 3.0 mph 7.0 mph 84 % 0.00 in 54 W/m2
18:21 64.0 °F 58.8 °F 30.11 in SW 5.0 mph 8.0 mph 83 % 0.00 in 35 W/m2
18:26 63.9 °F 58.9 °F 30.11 in SW 5.0 mph 8.0 mph 84 % 0.00 in 35 W/m2
18:31 63.9 °F 58.6 °F 30.11 in SSW 5.0 mph 9.0 mph 83 % 0.00 in 53 W/m2
18:36 63.9 °F 58.6 °F 30.11 in SSW 6.0 mph 9.0 mph 83 % 0.00 in 54 W/m2
18:41 63.9 °F 58.6 °F 30.11 in SSW 5.0 mph 8.0 mph 83 % 0.00 in 56 W/m2
18:46 63.9 °F 58.9 °F 30.11 in SSW 2.0 mph 8.0 mph 84 % 0.00 in 47 W/m2
18:51 63.9 °F 58.9 °F 30.11 in SW 1.0 mph 6.0 mph 84 % 0.00 in 51 W/m2
18:56 64.0 °F 59.1 °F 30.11 in SSW 2.0 mph 6.0 mph 84 % 0.00 in 58 W/m2
19:01 64.0 °F 58.8 °F 30.11 in SSW 3.0 mph 7.0 mph 83 % 0.00 in 63 W/m2
19:02 64.0 °F 58.8 °F 30.11 in SSW 3.0 mph 7.0 mph 83 % 0.00 in 60 W/m2
19:07 64.0 °F 58.8 °F 30.11 in South 4.0 mph 7.0 mph 83 % 0.00 in 37 W/m2
19:12 64.0 °F 58.8 °F 30.11 in South 4.0 mph 7.0 mph 83 % 0.00 in 28 W/m2
19:17 63.9 °F 58.6 °F 30.11 in South 3.0 mph 6.0 mph 83 % 0.00 in 26 W/m2
19:22 63.9 °F 58.9 °F 30.11 in SSW 3.0 mph 6.0 mph 84 % 0.00 in 26 W/m2
19:27 63.9 °F 58.9 °F 30.11 in SW 2.0 mph 5.0 mph 84 % 0.00 in 21 W/m2
19:32 63.9 °F 58.9 °F 30.11 in SW 1.0 mph 4.0 mph 84 % 0.00 in 18 W/m2
19:37 63.9 °F 58.9 °F 30.11 in SSW 2.0 mph 8.0 mph 84 % 0.00 in 16 W/m2
19:42 63.9 °F 58.9 °F 30.11 in SSW 4.0 mph 8.0 mph 84 % 0.00 in 11 W/m2
19:47 63.9 °F 59.3 °F 30.11 in SSW 3.0 mph 8.0 mph 85 % 0.00 in 9 W/m2
19:52 63.9 °F 59.6 °F 30.11 in SSW 2.0 mph 7.0 mph 86 % 0.00 in 9 W/m2
19:57 63.7 °F 59.4 °F 30.11 in SW 2.0 mph 6.0 mph 86 % 0.00 in 7 W/m2
20:02 63.5 °F 59.2 °F 30.11 in SW 2.0 mph 6.0 mph 86 % 0.00 in 5 W/m2
20:08 63.3 °F 59.4 °F 30.11 in SW 1.0 mph 6.0 mph 87 % 0.00 in 0 W/m2
20:13 63.3 °F 59.4 °F 30.11 in SW 1.0 mph 5.0 mph 87 % 0.00 in 0 W/m2
20:18 63.1 °F 59.2 °F 30.11 in Calm   5.0 mph 87 % 0.00 in 0 W/m2
20:23 63.1 °F 59.5 °F 30.11 in Calm     88 % 0.00 in 0 W/m2
20:28 63.1 °F 59.5 °F 30.11 in Calm     88 % 0.00 in 0 W/m2
20:33 63.1 °F 59.5 °F 30.12 in Calm     88 % 0.00 in 0 W/m2
20:38 63.0 °F 59.3 °F 30.11 in Calm     88 % 0.00 in 0 W/m2
20:43 63.0 °F 59.3 °F 30.12 in Calm   1.0 mph 88 % 0.00 in 0 W/m2
20:48 63.0 °F 59.7 °F 30.12 in Calm   1.0 mph 89 % 0.00 in 0 W/m2
20:53 63.0 °F 59.7 °F 30.12 in Calm   2.0 mph 89 % 0.00 in 0 W/m2
20:58 62.8 °F 59.5 °F 30.12 in Calm   2.0 mph 89 % 0.00 in 0 W/m2
21:03 62.8 °F 59.5 °F 30.12 in Calm   2.0 mph 89 % 0.00 in 0 W/m2
21:08 62.8 °F 59.5 °F 30.12 in Calm     89 % 0.00 in 0 W/m2
21:13 62.8 °F 59.5 °F 30.12 in Calm   2.0 mph 89 % 0.00 in 0 W/m2
21:18 62.8 °F 59.5 °F 30.12 in Calm   4.0 mph 89 % 0.00 in 0 W/m2
21:23 62.8 °F 59.8 °F 30.12 in Calm   4.0 mph 90 % 0.00 in 0 W/m2
21:28 62.6 °F 59.6 °F 30.12 in Calm     90 % 0.00 in 0 W/m2
21:33 62.4 °F 59.4 °F 30.12 in Calm     90 % 0.00 in 0 W/m2
21:38 62.4 °F 59.4 °F 30.12 in Calm     90 % 0.00 in 0 W/m2
21:43 62.2 °F 59.6 °F 30.12 in Calm     91 % 0.00 in 0 W/m2
21:48 62.2 °F 59.6 °F 30.12 in Calm   1.0 mph 91 % 0.00 in 0 W/m2
21:53 62.2 °F 59.6 °F 30.12 in Calm   1.0 mph 91 % 0.00 in 0 W/m2
21:58 62.1 °F 59.4 °F 30.12 in Calm   1.0 mph 91 % 0.00 in 0 W/m2
22:03 62.1 °F 59.7 °F 30.12 in Calm   2.0 mph 92 % 0.00 in 0 W/m2
22:09 62.1 °F 59.7 °F 30.12 in Calm   2.0 mph 92 % 0.00 in 0 W/m2
22:14 62.1 °F 59.7 °F 30.12 in Calm   4.0 mph 92 % 0.00 in 0 W/m2
22:19 61.9 °F 59.5 °F 30.12 in Calm   4.0 mph 92 % 0.00 in 0 W/m2
22:24 61.9 °F 59.5 °F 30.12 in Calm   1.0 mph 92 % 0.00 in 0 W/m2
22:29 61.9 °F 59.8 °F 30.12 in Calm   2.0 mph 93 % 0.00 in 0 W/m2
22:34 61.7 °F 59.4 °F 30.12 in Calm   2.0 mph 92 % 0.00 in 0 W/m2
22:39 61.7 °F 59.7 °F 30.12 in Calm   2.0 mph 93 % 0.00 in 0 W/m2
22:44 61.7 °F 59.7 °F 30.12 in Calm   1.0 mph 93 % 0.00 in 0 W/m2
22:49 61.7 °F 59.7 °F 30.12 in Calm   1.0 mph 93 % 0.00 in 0 W/m2
22:54 61.7 °F 59.7 °F 30.12 in Calm   1.0 mph 93 % 0.01 in 0 W/m2
22:59 61.7 °F 59.7 °F 30.12 in Calm   2.0 mph 93 % 0.01 in 0 W/m2
23:04 61.5 °F 59.5 °F 30.12 in Calm   2.0 mph 93 % 0.01 in 0 W/m2
23:09 61.5 °F 59.5 °F 30.12 in Calm   1.0 mph 93 % 0.01 in 0 W/m2
23:14 61.5 °F 59.8 °F 30.12 in Calm     94 % 0.01 in 0 W/m2
23:19 61.5 °F 59.8 °F 30.12 in Calm     94 % 0.01 in 0 W/m2
23:24 61.5 °F 59.8 °F 30.12 in Calm     94 % 0.01 in 0 W/m2
23:29 61.3 °F 59.6 °F 30.12 in Calm     94 % 0.01 in 0 W/m2
23:34 61.3 °F 59.6 °F 30.12 in Calm   2.0 mph 94 % 0.01 in 0 W/m2
23:39 61.3 °F 59.6 °F 30.12 in Calm   2.0 mph 94 % 0.01 in 0 W/m2
23:44 61.3 °F 59.6 °F 30.12 in Calm   3.0 mph 94 % 0.01 in 0 W/m2
23:49 61.3 °F 59.6 °F 30.11 in Calm   3.0 mph 94 % 0.00 in 0 W/m2
23:54 61.3 °F 59.6 °F 30.11 in Calm     94 % 0.00 in 0 W/m2
23:59 61.3 °F 59.6 °F 30.12 in Calm     94 % 0.00 in 0 W/m2
Delerius-Weather
Compliments of Weather Underground - 2.25 mb

Data updates at regular intervals.